sensor_id;sensor_type;location;lat;lon;timestamp;P1;durP1;ratioP1;P2;durP2;ratioP2
40609;SDS011;26316;55.976;37.140;2023-01-04T00:00:22;0.98;;;0.98;;
40609;SDS011;26316;55.976;37.140;2023-01-04T00:02:47;2.47;;;1.00;;
40609;SDS011;26316;55.976;37.140;2023-01-04T00:05:13;1.55;;;1.45;;
40609;SDS011;26316;55.976;37.140;2023-01-04T00:07:39;1.73;;;1.63;;
40609;SDS011;26316;55.976;37.140;2023-01-04T00:10:04;2.05;;;1.73;;
40609;SDS011;26316;55.976;37.140;2023-01-04T00:12:30;1.88;;;1.77;;
40609;SDS011;26316;55.976;37.140;2023-01-04T00:14:56;1.60;;;1.50;;
40609;SDS011;26316;55.976;37.140;2023-01-04T00:17:21;1.60;;;1.50;;
40609;SDS011;26316;55.976;37.140;2023-01-04T00:19:47;1.67;;;1.58;;
40609;SDS011;26316;55.976;37.140;2023-01-04T00:22:12;2.00;;;1.90;;
40609;SDS011;26316;55.976;37.140;2023-01-04T00:24:38;2.17;;;1.98;;
40609;SDS011;26316;55.976;37.140;2023-01-04T00:27:04;2.53;;;2.28;;
40609;SDS011;26316;55.976;37.140;2023-01-04T00:29:30;2.40;;;2.20;;
40609;SDS011;26316;55.976;37.140;2023-01-04T00:31:55;2.42;;;2.13;;
40609;SDS011;26316;55.976;37.140;2023-01-04T00:34:21;2.38;;;2.05;;
40609;SDS011;26316;55.976;37.140;2023-01-04T00:36:47;1.75;;;1.63;;
40609;SDS011;26316;55.976;37.140;2023-01-04T00:39:13;2.22;;;2.03;;
40609;SDS011;26316;55.976;37.140;2023-01-04T00:44:15;2.00;;;1.90;;
40609;SDS011;26316;55.976;37.140;2023-01-04T00:46:42;2.22;;;2.03;;
40609;SDS011;26316;55.976;37.140;2023-01-04T00:49:10;2.40;;;2.20;;
40609;SDS011;26316;55.976;37.140;2023-01-04T00:51:36;2.65;;;2.28;;
40609;SDS011;26316;55.976;37.140;2023-01-04T00:54:04;2.00;;;1.90;;
40609;SDS011;26316;55.976;37.140;2023-01-04T00:56:31;2.13;;;1.98;;
40609;SDS011;26316;55.976;37.140;2023-01-04T00:58:59;2.30;;;2.10;;
40609;SDS011;26316;55.976;37.140;2023-01-04T01:01:25;2.40;;;2.20;;
40609;SDS011;26316;55.976;37.140;2023-01-04T01:03:55;1.98;;;1.88;;
40609;SDS011;26316;55.976;37.140;2023-01-04T01:06:23;2.20;;;2.00;;
40609;SDS011;26316;55.976;37.140;2023-01-04T01:08:50;2.45;;;2.15;;
40609;SDS011;26316;55.976;37.140;2023-01-04T01:11:16;1.95;;;1.85;;
40609;SDS011;26316;55.976;37.140;2023-01-04T01:13:42;2.50;;;2.33;;
40609;SDS011;26316;55.976;37.140;2023-01-04T01:16:12;2.40;;;2.20;;
40609;SDS011;26316;55.976;37.140;2023-01-04T01:18:40;2.30;;;2.20;;
40609;SDS011;26316;55.976;37.140;2023-01-04T01:21:07;2.85;;;2.53;;
40609;SDS011;26316;55.976;37.140;2023-01-04T01:23:38;2.55;;;2.33;;
40609;SDS011;26316;55.976;37.140;2023-01-04T01:26:04;3.95;;;1.90;;
40609;SDS011;26316;55.976;37.140;2023-01-04T01:28:32;2.28;;;2.08;;
40609;SDS011;26316;55.976;37.140;2023-01-04T01:30:59;2.50;;;2.30;;
40609;SDS011;26316;55.976;37.140;2023-01-04T01:33:30;2.55;;;2.33;;
40609;SDS011;26316;55.976;37.140;2023-01-04T01:35:58;2.28;;;2.08;;
40609;SDS011;26316;55.976;37.140;2023-01-04T01:38:26;2.83;;;2.20;;
40609;SDS011;26316;55.976;37.140;2023-01-04T01:40:52;2.05;;;1.85;;
40609;SDS011;26316;55.976;37.140;2023-01-04T01:43:18;2.40;;;1.92;;
40609;SDS011;26316;55.976;37.140;2023-01-04T01:45:51;2.40;;;1.90;;
40609;SDS011;26316;55.976;37.140;2023-01-04T01:48:20;3.47;;;2.55;;
40609;SDS011;26316;55.976;37.140;2023-01-04T01:53:16;2.50;;;2.30;;
40609;SDS011;26316;55.976;37.140;2023-01-04T01:55:42;2.38;;;2.25;;
40609;SDS011;26316;55.976;37.140;2023-01-04T01:58:09;2.28;;;2.08;;
40609;SDS011;26316;55.976;37.140;2023-01-04T02:00:38;3.17;;;2.60;;
40609;SDS011;26316;55.976;37.140;2023-01-04T02:06:16;3.08;;;2.25;;
40609;SDS011;26316;55.976;37.140;2023-01-04T02:08:44;2.72;;;2.53;;
40609;SDS011;26316;55.976;37.140;2023-01-04T02:11:10;2.65;;;2.40;;
40609;SDS011;26316;55.976;37.140;2023-01-04T02:13:35;2.75;;;2.55;;
40609;SDS011;26316;55.976;37.140;2023-01-04T02:16:53;3.55;;;2.90;;
40609;SDS011;26316;55.976;37.140;2023-01-04T02:33:54;2.58;;;2.38;;
40609;SDS011;26316;55.976;37.140;2023-01-04T02:36:29;2.60;;;2.40;;
40609;SDS011;26316;55.976;37.140;2023-01-04T02:39:01;5.07;;;2.40;;
40609;SDS011;26316;55.976;37.140;2023-01-04T02:46:57;4.03;;;2.72;;
40609;SDS011;26316;55.976;37.140;2023-01-04T02:49:26;3.40;;;2.63;;
40609;SDS011;26316;55.976;37.140;2023-01-04T02:52:11;3.22;;;2.90;;
40609;SDS011;26316;55.976;37.140;2023-01-04T02:54:37;3.05;;;2.50;;
40609;SDS011;26316;55.976;37.140;2023-01-04T02:57:06;2.80;;;2.47;;
40609;SDS011;26316;55.976;37.140;2023-01-04T03:07:53;2.85;;;2.40;;
40609;SDS011;26316;55.976;37.140;2023-01-04T03:10:37;2.88;;;2.67;;
40609;SDS011;26316;55.976;37.140;2023-01-04T03:13:27;2.95;;;2.70;;
40609;SDS011;26316;55.976;37.140;2023-01-04T03:16:02;2.85;;;2.40;;
40609;SDS011;26316;55.976;37.140;2023-01-04T03:18:32;4.50;;;2.80;;
40609;SDS011;26316;55.976;37.140;2023-01-04T03:21:00;2.30;;;2.10;;
40609;SDS011;26316;55.976;37.140;2023-01-04T03:23:29;2.53;;;2.15;;
40609;SDS011;26316;55.976;37.140;2023-01-04T03:29:41;4.38;;;2.42;;
40609;SDS011;26316;55.976;37.140;2023-01-04T03:32:38;2.92;;;2.38;;
40609;SDS011;26316;55.976;37.140;2023-01-04T03:35:28;2.85;;;2.50;;
40609;SDS011;26316;55.976;37.140;2023-01-04T03:38:07;2.92;;;2.05;;
40609;SDS011;26316;55.976;37.140;2023-01-04T03:41:10;2.83;;;2.00;;
40609;SDS011;26316;55.976;37.140;2023-01-04T03:47:25;1.92;;;1.70;;
40609;SDS011;26316;55.976;37.140;2023-01-04T03:50:18;2.15;;;1.95;;
40609;SDS011;26316;55.976;37.140;2023-01-04T03:52:47;1.77;;;1.67;;
40609;SDS011;26316;55.976;37.140;2023-01-04T03:55:14;1.45;;;1.35;;
40609;SDS011;26316;55.976;37.140;2023-01-04T03:57:40;2.20;;;2.00;;
40609;SDS011;26316;55.976;37.140;2023-01-04T04:00:08;3.00;;;1.30;;
40609;SDS011;26316;55.976;37.140;2023-01-04T04:05:02;2.08;;;1.67;;
40609;SDS011;26316;55.976;37.140;2023-01-04T04:07:47;1.73;;;1.60;;
40609;SDS011;26316;55.976;37.140;2023-01-04T04:10:31;1.67;;;1.55;;
40609;SDS011;26316;55.976;37.140;2023-01-04T04:12:57;2.30;;;1.50;;
40609;SDS011;26316;55.976;37.140;2023-01-04T04:15:22;4.78;;;1.77;;
40609;SDS011;26316;55.976;37.140;2023-01-04T04:17:48;1.50;;;1.40;;
40609;SDS011;26316;55.976;37.140;2023-01-04T04:20:13;2.47;;;1.60;;
40609;SDS011;26316;55.976;37.140;2023-01-04T04:22:39;2.20;;;1.40;;
40609;SDS011;26316;55.976;37.140;2023-01-04T04:25:05;1.83;;;1.73;;
40609;SDS011;26316;55.976;37.140;2023-01-04T04:27:31;1.85;;;1.35;;
40609;SDS011;26316;55.976;37.140;2023-01-04T04:29:57;1.75;;;1.30;;
40609;SDS011;26316;55.976;37.140;2023-01-04T04:32:22;2.35;;;1.48;;
40609;SDS011;26316;55.976;37.140;2023-01-04T04:34:48;1.50;;;1.27;;
40609;SDS011;26316;55.976;37.140;2023-01-04T04:37:14;1.50;;;1.35;;
40609;SDS011;26316;55.976;37.140;2023-01-04T04:39:40;2.15;;;1.08;;
40609;SDS011;26316;55.976;37.140;2023-01-04T04:42:05;1.50;;;1.33;;
40609;SDS011;26316;55.976;37.140;2023-01-04T04:44:32;1.02;;;0.93;;
40609;SDS011;26316;55.976;37.140;2023-01-04T04:46:58;3.90;;;2.53;;
40609;SDS011;26316;55.976;37.140;2023-01-04T04:49:24;2.10;;;1.45;;
40609;SDS011;26316;55.976;37.140;2023-01-04T04:51:49;1.40;;;1.30;;
40609;SDS011;26316;55.976;37.140;2023-01-04T04:54:16;1.38;;;1.20;;
40609;SDS011;26316;55.976;37.140;2023-01-04T04:56:43;2.35;;;1.48;;
40609;SDS011;26316;55.976;37.140;2023-01-04T04:59:09;1.98;;;1.35;;
40609;SDS011;26316;55.976;37.140;2023-01-04T05:01:35;1.65;;;1.10;;
40609;SDS011;26316;55.976;37.140;2023-01-04T05:04:00;1.70;;;1.40;;
40609;SDS011;26316;55.976;37.140;2023-01-04T05:06:26;7.47;;;4.93;;
40609;SDS011;26316;55.976;37.140;2023-01-04T05:08:52;2.33;;;2.00;;
40609;SDS011;26316;55.976;37.140;2023-01-04T05:11:19;1.70;;;1.38;;
40609;SDS011;26316;55.976;37.140;2023-01-04T05:14:20;1.90;;;1.60;;
40609;SDS011;26316;55.976;37.140;2023-01-04T05:16:45;3.17;;;1.95;;
40609;SDS011;26316;55.976;37.140;2023-01-04T05:19:11;3.08;;;1.80;;
40609;SDS011;26316;55.976;37.140;2023-01-04T05:21:37;1.95;;;1.63;;
40609;SDS011;26316;55.976;37.140;2023-01-04T05:24:03;1.00;;;1.00;;
40609;SDS011;26316;55.976;37.140;2023-01-04T05:26:29;3.83;;;2.85;;
40609;SDS011;26316;55.976;37.140;2023-01-04T05:28:54;2.30;;;1.75;;
40609;SDS011;26316;55.976;37.140;2023-01-04T05:31:20;2.90;;;1.70;;
40609;SDS011;26316;55.976;37.140;2023-01-04T05:33:46;1.13;;;1.10;;
40609;SDS011;26316;55.976;37.140;2023-01-04T05:36:11;1.90;;;1.58;;
40609;SDS011;26316;55.976;37.140;2023-01-04T05:38:37;1.98;;;1.30;;
40609;SDS011;26316;55.976;37.140;2023-01-04T05:41:02;1.50;;;1.40;;
40609;SDS011;26316;55.976;37.140;2023-01-04T05:43:28;1.45;;;1.35;;
40609;SDS011;26316;55.976;37.140;2023-01-04T05:45:54;1.40;;;1.30;;
40609;SDS011;26316;55.976;37.140;2023-01-04T05:48:21;2.03;;;1.02;;
40609;SDS011;26316;55.976;37.140;2023-01-04T05:50:47;1.25;;;1.13;;
40609;SDS011;26316;55.976;37.140;2023-01-04T05:53:14;1.23;;;1.13;;
40609;SDS011;26316;55.976;37.140;2023-01-04T05:55:42;1.05;;;0.98;;
40609;SDS011;26316;55.976;37.140;2023-01-04T05:58:08;1.83;;;1.17;;
40609;SDS011;26316;55.976;37.140;2023-01-04T06:00:33;1.40;;;1.30;;
40609;SDS011;26316;55.976;37.140;2023-01-04T06:02:59;1.42;;;1.33;;
40609;SDS011;26316;55.976;37.140;2023-01-04T06:05:25;1.40;;;1.30;;
40609;SDS011;26316;55.976;37.140;2023-01-04T06:07:50;0.95;;;0.95;;
40609;SDS011;26316;55.976;37.140;2023-01-04T06:10:16;1.30;;;1.17;;
40609;SDS011;26316;55.976;37.140;2023-01-04T06:12:42;2.22;;;1.13;;
40609;SDS011;26316;55.976;37.140;2023-01-04T06:15:08;0.90;;;0.90;;
40609;SDS011;26316;55.976;37.140;2023-01-04T06:17:35;2.78;;;1.23;;
40609;SDS011;26316;55.976;37.140;2023-01-04T06:20:02;1.20;;;1.10;;
40609;SDS011;26316;55.976;37.140;2023-01-04T06:22:28;1.25;;;1.15;;
40609;SDS011;26316;55.976;37.140;2023-01-04T06:24:54;1.75;;;1.65;;
40609;SDS011;26316;55.976;37.140;2023-01-04T06:27:20;1.73;;;1.27;;
40609;SDS011;26316;55.976;37.140;2023-01-04T06:29:45;1.40;;;1.30;;
40609;SDS011;26316;55.976;37.140;2023-01-04T06:32:11;1.88;;;1.77;;
40609;SDS011;26316;55.976;37.140;2023-01-04T06:34:37;1.77;;;1.67;;
40609;SDS011;26316;55.976;37.140;2023-01-04T06:37:02;2.65;;;2.03;;
40609;SDS011;26316;55.976;37.140;2023-01-04T06:39:29;2.35;;;2.05;;
40609;SDS011;26316;55.976;37.140;2023-01-04T06:41:55;2.65;;;2.45;;
40609;SDS011;26316;55.976;37.140;2023-01-04T06:44:21;3.45;;;3.15;;
40609;SDS011;26316;55.976;37.140;2023-01-04T06:46:47;3.85;;;3.55;;
40609;SDS011;26316;55.976;37.140;2023-01-04T06:49:12;3.72;;;3.42;;
40609;SDS011;26316;55.976;37.140;2023-01-04T06:51:38;4.00;;;3.63;;
40609;SDS011;26316;55.976;37.140;2023-01-04T06:54:04;4.00;;;3.70;;
40609;SDS011;26316;55.976;37.140;2023-01-04T06:56:29;4.60;;;4.30;;
40609;SDS011;26316;55.976;37.140;2023-01-04T06:58:56;6.00;;;4.95;;
40609;SDS011;26316;55.976;37.140;2023-01-04T07:01:22;5.35;;;4.85;;
40609;SDS011;26316;55.976;37.140;2023-01-04T07:03:48;5.30;;;4.80;;
40609;SDS011;26316;55.976;37.140;2023-01-04T07:06:13;8.77;;;5.28;;
40609;SDS011;26316;55.976;37.140;2023-01-04T07:08:39;6.10;;;5.50;;
40609;SDS011;26316;55.976;37.140;2023-01-04T07:11:04;5.97;;;5.47;;
40609;SDS011;26316;55.976;37.140;2023-01-04T07:13:30;7.82;;;6.68;;
40609;SDS011;26316;55.976;37.140;2023-01-04T07:15:56;6.60;;;6.00;;
40609;SDS011;26316;55.976;37.140;2023-01-04T07:18:21;7.05;;;6.25;;
40609;SDS011;26316;55.976;37.140;2023-01-04T07:20:47;6.43;;;5.93;;
40609;SDS011;26316;55.976;37.140;2023-01-04T07:23:13;7.15;;;6.45;;
40609;SDS011;26316;55.976;37.140;2023-01-04T07:25:38;7.50;;;6.80;;
40609;SDS011;26316;55.976;37.140;2023-01-04T07:28:04;7.80;;;7.00;;
40609;SDS011;26316;55.976;37.140;2023-01-04T07:30:29;9.60;;;7.20;;
40609;SDS011;26316;55.976;37.140;2023-01-04T07:32:55;7.35;;;6.65;;
40609;SDS011;26316;55.976;37.140;2023-01-04T07:35:21;7.18;;;6.57;;
40609;SDS011;26316;55.976;37.140;2023-01-04T07:37:47;7.95;;;7.15;;
40609;SDS011;26316;55.976;37.140;2023-01-04T07:40:13;8.32;;;7.53;;
40609;SDS011;26316;55.976;37.140;2023-01-04T07:42:39;8.85;;;7.10;;
40609;SDS011;26316;55.976;37.140;2023-01-04T07:45:05;8.23;;;7.43;;
40609;SDS011;26316;55.976;37.140;2023-01-04T07:47:31;7.82;;;7.13;;
40609;SDS011;26316;55.976;37.140;2023-01-04T07:49:57;10.05;;;7.50;;
40609;SDS011;26316;55.976;37.140;2023-01-04T07:52:24;8.55;;;7.63;;
40609;SDS011;26316;55.976;37.140;2023-01-04T07:54:50;8.77;;;7.93;;
40609;SDS011;26316;55.976;37.140;2023-01-04T07:57:16;8.68;;;7.78;;
40609;SDS011;26316;55.976;37.140;2023-01-04T07:59:42;8.70;;;7.78;;
40609;SDS011;26316;55.976;37.140;2023-01-04T08:02:09;8.25;;;7.47;;
40609;SDS011;26316;55.976;37.140;2023-01-04T08:04:35;8.52;;;7.72;;
40609;SDS011;26316;55.976;37.140;2023-01-04T08:07:01;9.10;;;8.10;;
40609;SDS011;26316;55.976;37.140;2023-01-04T08:09:26;9.02;;;8.13;;
40609;SDS011;26316;55.976;37.140;2023-01-04T08:11:52;10.20;;;8.60;;
40609;SDS011;26316;55.976;37.140;2023-01-04T08:14:18;9.60;;;7.90;;
40609;SDS011;26316;55.976;37.140;2023-01-04T08:16:43;11.88;;;8.00;;
40609;SDS011;26316;55.976;37.140;2023-01-04T08:19:15;9.15;;;8.02;;
40609;SDS011;26316;55.976;37.140;2023-01-04T08:21:42;9.57;;;8.68;;
40609;SDS011;26316;55.976;37.140;2023-01-04T08:24:12;10.82;;;8.75;;
40609;SDS011;26316;55.976;37.140;2023-01-04T08:26:40;9.30;;;8.40;;
40609;SDS011;26316;55.976;37.140;2023-01-04T08:29:06;9.48;;;8.48;;
40609;SDS011;26316;55.976;37.140;2023-01-04T08:31:32;10.32;;;9.10;;
40609;SDS011;26316;55.976;37.140;2023-01-04T08:34:00;10.45;;;8.48;;
40609;SDS011;26316;55.976;37.140;2023-01-04T08:36:27;9.95;;;8.57;;
40609;SDS011;26316;55.976;37.140;2023-01-04T08:38:55;9.80;;;8.70;;
40609;SDS011;26316;55.976;37.140;2023-01-04T08:41:24;10.52;;;8.93;;
40609;SDS011;26316;55.976;37.140;2023-01-04T08:43:50;11.10;;;9.32;;
40609;SDS011;26316;55.976;37.140;2023-01-04T08:46:15;10.35;;;8.80;;
40609;SDS011;26316;55.976;37.140;2023-01-04T08:48:41;10.20;;;8.75;;
40609;SDS011;26316;55.976;37.140;2023-01-04T08:51:09;11.10;;;9.30;;
40609;SDS011;26316;55.976;37.140;2023-01-04T08:53:36;10.50;;;9.20;;
40609;SDS011;26316;55.976;37.140;2023-01-04T08:56:02;10.45;;;9.20;;
40609;SDS011;26316;55.976;37.140;2023-01-04T08:58:29;8.98;;;7.90;;
40609;SDS011;26316;55.976;37.140;2023-01-04T09:01:03;9.27;;;8.38;;
40609;SDS011;26316;55.976;37.140;2023-01-04T09:03:33;9.63;;;7.47;;
40609;SDS011;26316;55.976;37.140;2023-01-04T09:08:33;8.27;;;7.47;;
40609;SDS011;26316;55.976;37.140;2023-01-04T09:11:03;7.53;;;6.72;;
40609;SDS011;26316;55.976;37.140;2023-01-04T09:13:33;8.30;;;7.50;;
40609;SDS011;26316;55.976;37.140;2023-01-04T09:16:00;8.48;;;7.03;;
40609;SDS011;26316;55.976;37.140;2023-01-04T09:18:26;8.20;;;7.40;;
40609;SDS011;26316;55.976;37.140;2023-01-04T09:20:52;8.98;;;7.03;;
40609;SDS011;26316;55.976;37.140;2023-01-04T09:23:18;8.40;;;7.50;;
40609;SDS011;26316;55.976;37.140;2023-01-04T09:25:43;8.60;;;7.60;;
40609;SDS011;26316;55.976;37.140;2023-01-04T09:28:09;9.85;;;7.43;;
40609;SDS011;26316;55.976;37.140;2023-01-04T09:30:35;8.70;;;6.90;;
40609;SDS011;26316;55.976;37.140;2023-01-04T09:33:00;6.72;;;6.05;;
40609;SDS011;26316;55.976;37.140;2023-01-04T09:35:26;6.50;;;5.70;;
40609;SDS011;26316;55.976;37.140;2023-01-04T09:37:52;5.90;;;5.30;;
40609;SDS011;26316;55.976;37.140;2023-01-04T09:40:19;6.03;;;4.53;;
40609;SDS011;26316;55.976;37.140;2023-01-04T09:42:47;6.32;;;5.30;;
40609;SDS011;26316;55.976;37.140;2023-01-04T09:45:17;5.07;;;4.30;;
40609;SDS011;26316;55.976;37.140;2023-01-04T09:50:24;4.18;;;3.88;;
40609;SDS011;26316;55.976;37.140;2023-01-04T09:55:43;3.70;;;3.40;;
40609;SDS011;26316;55.976;37.140;2023-01-04T10:00:44;3.75;;;3.30;;
40609;SDS011;26316;55.976;37.140;2023-01-04T10:03:21;3.65;;;3.35;;
40609;SDS011;26316;55.976;37.140;2023-01-04T10:05:49;3.03;;;2.83;;
40609;SDS011;26316;55.976;37.140;2023-01-04T10:08:17;3.25;;;2.88;;
40609;SDS011;26316;55.976;37.140;2023-01-04T10:13:35;2.83;;;2.63;;
40609;SDS011;26316;55.976;37.140;2023-01-04T10:27:56;2.00;;;1.90;;
40609;SDS011;26316;55.976;37.140;2023-01-04T10:30:58;2.17;;;2.00;;
40609;SDS011;26316;55.976;37.140;2023-01-04T10:33:41;2.08;;;1.88;;
40609;SDS011;26316;55.976;37.140;2023-01-04T10:36:18;2.13;;;1.92;;
40609;SDS011;26316;55.976;37.140;2023-01-04T10:38:45;2.17;;;2.03;;
40609;SDS011;26316;55.976;37.140;2023-01-04T10:41:18;1.90;;;1.77;;
40609;SDS011;26316;55.976;37.140;2023-01-04T10:46:40;2.75;;;2.55;;
40609;SDS011;26316;55.976;37.140;2023-01-04T10:49:40;2.20;;;2.00;;
40609;SDS011;26316;55.976;37.140;2023-01-04T10:52:19;2.10;;;1.92;;
40609;SDS011;26316;55.976;37.140;2023-01-04T10:54:54;2.30;;;2.10;;
40609;SDS011;26316;55.976;37.140;2023-01-04T10:57:26;2.28;;;2.08;;
40609;SDS011;26316;55.976;37.140;2023-01-04T11:00:00;2.30;;;2.10;;
40609;SDS011;26316;55.976;37.140;2023-01-04T11:05:03;2.58;;;2.38;;
40609;SDS011;26316;55.976;37.140;2023-01-04T11:07:52;1.80;;;1.70;;
40609;SDS011;26316;55.976;37.140;2023-01-04T11:10:29;1.75;;;1.65;;
40609;SDS011;26316;55.976;37.140;2023-01-04T11:12:58;2.45;;;1.27;;
40609;SDS011;26316;55.976;37.140;2023-01-04T11:15:24;1.98;;;1.77;;
40609;SDS011;26316;55.976;37.140;2023-01-04T11:17:49;1.35;;;1.27;;
40609;SDS011;26316;55.976;37.140;2023-01-04T11:20:16;1.48;;;1.38;;
40609;SDS011;26316;55.976;37.140;2023-01-04T11:22:44;2.17;;;1.58;;
40609;SDS011;26316;55.976;37.140;2023-01-04T11:25:17;1.88;;;1.58;;
40609;SDS011;26316;55.976;37.140;2023-01-04T11:27:52;1.58;;;1.48;;
40609;SDS011;26316;55.976;37.140;2023-01-04T11:30:27;1.88;;;1.70;;
40609;SDS011;26316;55.976;37.140;2023-01-04T11:33:07;2.35;;;1.70;;
40609;SDS011;26316;55.976;37.140;2023-01-04T11:40:41;1.60;;;1.50;;
40609;SDS011;26316;55.976;37.140;2023-01-04T11:43:19;1.42;;;1.33;;
40609;SDS011;26316;55.976;37.140;2023-01-04T11:45:52;1.50;;;1.40;;
40609;SDS011;26316;55.976;37.140;2023-01-04T11:48:42;1.75;;;1.65;;
40609;SDS011;26316;55.976;37.140;2023-01-04T11:53:55;1.67;;;1.58;;
40609;SDS011;26316;55.976;37.140;2023-01-04T11:56:23;1.50;;;1.40;;
40609;SDS011;26316;55.976;37.140;2023-01-04T12:01:43;1.13;;;1.05;;
40609;SDS011;26316;55.976;37.140;2023-01-04T12:04:21;1.42;;;1.10;;
40609;SDS011;26316;55.976;37.140;2023-01-04T12:07:48;0.90;;;0.90;;
40609;SDS011;26316;55.976;37.140;2023-01-04T12:09:49;0.93;;;0.93;;
40609;SDS011;26316;55.976;37.140;2023-01-04T12:12:15;1.08;;;1.08;;
40609;SDS011;26316;55.976;37.140;2023-01-04T12:14:44;1.45;;;1.35;;
40609;SDS011;26316;55.976;37.140;2023-01-04T12:19:41;1.25;;;1.10;;
40609;SDS011;26316;55.976;37.140;2023-01-04T12:22:21;1.77;;;1.10;;
40609;SDS011;26316;55.976;37.140;2023-01-04T12:24:50;1.20;;;1.10;;
40609;SDS011;26316;55.976;37.140;2023-01-04T12:27:17;1.45;;;1.35;;
40609;SDS011;26316;55.976;37.140;2023-01-04T12:29:45;1.10;;;1.10;;
40609;SDS011;26316;55.976;37.140;2023-01-04T12:34:43;1.05;;;1.00;;
40609;SDS011;26316;55.976;37.140;2023-01-04T12:45:51;0.82;;;0.82;;
40609;SDS011;26316;55.976;37.140;2023-01-04T12:54:48;1.02;;;1.02;;
40609;SDS011;26316;55.976;37.140;2023-01-04T12:59:58;1.02;;;1.02;;
40609;SDS011;26316;55.976;37.140;2023-01-04T13:02:31;1.38;;;1.27;;
40609;SDS011;26316;55.976;37.140;2023-01-04T13:04:57;2.28;;;2.10;;
40609;SDS011;26316;55.976;37.140;2023-01-04T13:07:26;1.67;;;1.58;;
40609;SDS011;26316;55.976;37.140;2023-01-04T13:09:58;1.38;;;1.27;;
40609;SDS011;26316;55.976;37.140;2023-01-04T13:17:35;1.90;;;1.80;;
40609;SDS011;26316;55.976;37.140;2023-01-04T13:20:14;2.13;;;1.85;;
40609;SDS011;26316;55.976;37.140;2023-01-04T13:22:47;2.47;;;1.90;;
40609;SDS011;26316;55.976;37.140;2023-01-04T13:25:15;1.90;;;1.80;;
40609;SDS011;26316;55.976;37.140;2023-01-04T13:27:57;2.17;;;2.00;;
40609;SDS011;26316;55.976;37.140;2023-01-04T13:30:31;2.50;;;2.30;;
40609;SDS011;26316;55.976;37.140;2023-01-04T13:32:57;2.60;;;2.40;;
40609;SDS011;26316;55.976;37.140;2023-01-04T13:35:23;2.88;;;2.42;;
40609;SDS011;26316;55.976;37.140;2023-01-04T13:37:49;3.45;;;3.15;;
40609;SDS011;26316;55.976;37.140;2023-01-04T13:48:24;5.20;;;4.05;;
40609;SDS011;26316;55.976;37.140;2023-01-04T13:53:51;4.13;;;3.72;;
40609;SDS011;26316;55.976;37.140;2023-01-04T13:56:21;3.72;;;3.40;;
40609;SDS011;26316;55.976;37.140;2023-01-04T13:58:51;2.90;;;2.70;;
40609;SDS011;26316;55.976;37.140;2023-01-04T14:01:34;4.63;;;3.55;;
40609;SDS011;26316;55.976;37.140;2023-01-04T14:04:24;3.45;;;2.78;;
40609;SDS011;26316;55.976;37.140;2023-01-04T14:06:52;4.00;;;3.22;;
40609;SDS011;26316;55.976;37.140;2023-01-04T14:09:26;3.20;;;2.90;;
40609;SDS011;26316;55.976;37.140;2023-01-04T14:11:57;4.15;;;2.70;;
40609;SDS011;26316;55.976;37.140;2023-01-04T14:17:21;3.10;;;2.63;;
40609;SDS011;26316;55.976;37.140;2023-01-04T14:20:02;5.05;;;2.90;;
40609;SDS011;26316;55.976;37.140;2023-01-04T14:24:59;3.28;;;2.90;;
40609;SDS011;26316;55.976;37.140;2023-01-04T14:27:45;4.50;;;4.10;;
40609;SDS011;26316;55.976;37.140;2023-01-04T14:32:56;5.25;;;4.70;;
40609;SDS011;26316;55.976;37.140;2023-01-04T14:35:23;6.55;;;4.88;;
40609;SDS011;26316;55.976;37.140;2023-01-04T14:37:50;5.18;;;4.68;;
40609;SDS011;26316;55.976;37.140;2023-01-04T14:40:24;5.32;;;4.70;;
40609;SDS011;26316;55.976;37.140;2023-01-04T14:42:53;6.20;;;5.28;;
40609;SDS011;26316;55.976;37.140;2023-01-04T14:45:19;4.68;;;4.28;;
40609;SDS011;26316;55.976;37.140;2023-01-04T14:47:45;6.00;;;5.15;;
40609;SDS011;26316;55.976;37.140;2023-01-04T14:50:14;6.00;;;5.10;;
40609;SDS011;26316;55.976;37.140;2023-01-04T14:52:48;6.55;;;5.85;;
40609;SDS011;26316;55.976;37.140;2023-01-04T14:55:18;6.95;;;6.00;;
40609;SDS011;26316;55.976;37.140;2023-01-04T14:57:47;7.00;;;6.00;;
40609;SDS011;26316;55.976;37.140;2023-01-04T15:00:16;7.65;;;6.43;;
40609;SDS011;26316;55.976;37.140;2023-01-04T15:02:42;6.88;;;6.05;;
40609;SDS011;26316;55.976;37.140;2023-01-04T15:05:13;8.88;;;7.35;;
40609;SDS011;26316;55.976;37.140;2023-01-04T15:07:39;7.32;;;6.57;;
40609;SDS011;26316;55.976;37.140;2023-01-04T15:10:06;8.25;;;7.35;;
40609;SDS011;26316;55.976;37.140;2023-01-04T15:12:40;10.05;;;7.47;;
40609;SDS011;26316;55.976;37.140;2023-01-04T15:15:05;8.98;;;7.88;;
40609;SDS011;26316;55.976;37.140;2023-01-04T15:17:31;8.70;;;7.10;;
40609;SDS011;26316;55.976;37.140;2023-01-04T15:19:57;9.63;;;7.05;;
40609;SDS011;26316;55.976;37.140;2023-01-04T15:22:23;7.53;;;6.70;;
40609;SDS011;26316;55.976;37.140;2023-01-04T15:24:48;8.05;;;7.18;;
40609;SDS011;26316;55.976;37.140;2023-01-04T15:27:14;9.45;;;7.57;;
40609;SDS011;26316;55.976;37.140;2023-01-04T15:29:39;10.88;;;8.30;;
40609;SDS011;26316;55.976;37.140;2023-01-04T15:32:05;9.57;;;8.15;;
40609;SDS011;26316;55.976;37.140;2023-01-04T15:34:31;10.48;;;8.32;;
40609;SDS011;26316;55.976;37.140;2023-01-04T15:36:56;9.98;;;8.35;;
40609;SDS011;26316;55.976;37.140;2023-01-04T15:39:22;11.88;;;7.90;;
40609;SDS011;26316;55.976;37.140;2023-01-04T15:41:47;10.80;;;8.13;;
40609;SDS011;26316;55.976;37.140;2023-01-04T15:44:32;10.40;;;8.00;;
40609;SDS011;26316;55.976;37.140;2023-01-04T15:46:57;11.20;;;8.63;;
40609;SDS011;26316;55.976;37.140;2023-01-04T15:49:24;9.80;;;8.07;;
40609;SDS011;26316;55.976;37.140;2023-01-04T15:51:49;8.27;;;7.38;;
40609;SDS011;26316;55.976;37.140;2023-01-04T15:54:15;9.43;;;7.47;;
40609;SDS011;26316;55.976;37.140;2023-01-04T15:56:41;8.02;;;7.13;;
40609;SDS011;26316;55.976;37.140;2023-01-04T15:59:07;8.32;;;7.10;;
40609;SDS011;26316;55.976;37.140;2023-01-04T16:01:33;9.07;;;6.88;;
40609;SDS011;26316;55.976;37.140;2023-01-04T16:03:58;9.48;;;7.28;;
40609;SDS011;26316;55.976;37.140;2023-01-04T16:06:24;7.53;;;6.30;;
40609;SDS011;26316;55.976;37.140;2023-01-04T16:08:50;9.13;;;6.88;;
40609;SDS011;26316;55.976;37.140;2023-01-04T16:11:21;7.20;;;6.13;;
40609;SDS011;26316;55.976;37.140;2023-01-04T16:13:47;7.47;;;6.38;;
40609;SDS011;26316;55.976;37.140;2023-01-04T16:16:15;8.20;;;5.78;;
40609;SDS011;26316;55.976;37.140;2023-01-04T16:18:45;7.15;;;6.30;;
40609;SDS011;26316;55.976;37.140;2023-01-04T16:21:12;7.28;;;5.55;;
40609;SDS011;26316;55.976;37.140;2023-01-04T16:23:39;8.27;;;6.25;;
40609;SDS011;26316;55.976;37.140;2023-01-04T16:26:09;6.90;;;5.88;;
40609;SDS011;26316;55.976;37.140;2023-01-04T16:28:36;7.80;;;5.60;;
40609;SDS011;26316;55.976;37.140;2023-01-04T16:31:05;6.18;;;5.30;;
40609;SDS011;26316;55.976;37.140;2023-01-04T16:33:32;7.13;;;5.90;;
40609;SDS011;26316;55.976;37.140;2023-01-04T16:38:26;8.20;;;5.88;;
40609;SDS011;26316;55.976;37.140;2023-01-04T16:40:55;7.32;;;6.20;;
40609;SDS011;26316;55.976;37.140;2023-01-04T16:43:22;7.40;;;5.88;;
40609;SDS011;26316;55.976;37.140;2023-01-04T16:45:48;8.95;;;6.40;;
40609;SDS011;26316;55.976;37.140;2023-01-04T16:48:13;6.13;;;5.53;;
40609;SDS011;26316;55.976;37.140;2023-01-04T16:50:39;6.72;;;5.75;;
40609;SDS011;26316;55.976;37.140;2023-01-04T16:53:05;6.88;;;5.40;;
40609;SDS011;26316;55.976;37.140;2023-01-04T16:55:30;7.28;;;5.10;;
40609;SDS011;26316;55.976;37.140;2023-01-04T16:57:56;6.30;;;5.32;;
40609;SDS011;26316;55.976;37.140;2023-01-04T17:00:21;6.88;;;5.57;;